sensor_id;sensor_type;location;lat;lon;timestamp;pressure;altitude;pressure_sealevel;temperature;humidity
3294;BME280;1659;51.470;6.770;2023-11-21T00:01:02;100915.38;;;8.43;100.00
3294;BME280;1659;51.470;6.770;2023-11-21T00:03:30;100914.50;;;8.46;100.00
3294;BME280;1659;51.470;6.770;2023-11-21T00:05:56;100912.72;;;8.48;100.00
3294;BME280;1659;51.470;6.770;2023-11-21T00:08:23;100912.72;;;8.51;100.00
3294;BME280;1659;51.470;6.770;2023-11-21T00:10:49;100914.44;;;8.54;100.00
3294;BME280;1659;51.470;6.770;2023-11-21T00:13:17;100912.66;;;8.56;100.00
3294;BME280;1659;51.470;6.770;2023-11-21T00:15:44;100911.78;;;8.57;100.00
3294;BME280;1659;51.470;6.770;2023-11-21T00:18:10;100917.03;;;8.60;100.00
3294;BME280;1659;51.470;6.770;2023-11-21T00:20:37;100919.63;;;8.61;100.00
3294;BME280;1659;51.470;6.770;2023-11-21T00:23:03;100922.25;;;8.63;100.00
3294;BME280;1659;51.470;6.770;2023-11-21T00:25:30;100923.16;;;8.63;100.00
3294;BME280;1659;51.470;6.770;2023-11-21T00:27:57;100924.00;;;8.64;100.00
3294;BME280;1659;51.470;6.770;2023-11-21T00:30:25;100924.00;;;8.64;100.00
3294;BME280;1659;51.470;6.770;2023-11-21T00:32:51;100918.75;;;8.64;100.00
3294;BME280;1659;51.470;6.770;2023-11-21T00:35:18;100925.78;;;8.65;100.00
3294;BME280;1659;51.470;6.770;2023-11-21T00:37:45;100919.63;;;8.63;100.00
3294;BME280;1659;51.470;6.770;2023-11-21T00:40:12;100926.66;;;8.64;100.00
3294;BME280;1659;51.470;6.770;2023-11-21T00:42:40;100923.16;;;8.62;100.00
3294;BME280;1659;51.470;6.770;2023-11-21T00:45:08;100930.16;;;8.61;100.00
3294;BME280;1659;51.470;6.770;2023-11-21T00:47:36;100924.03;;;8.58;100.00
3294;BME280;1659;51.470;6.770;2023-11-21T00:50:04;100925.84;;;8.54;100.00
3294;BME280;1659;51.470;6.770;2023-11-21T00:52:31;100924.09;;;8.53;100.00
3294;BME280;1659;51.470;6.770;2023-11-21T00:54:58;100926.72;;;8.53;100.00
3294;BME280;1659;51.470;6.770;2023-11-21T00:57:25;100921.47;;;8.53;100.00
3294;BME280;1659;51.470;6.770;2023-11-21T00:59:51;100923.19;;;8.54;100.00
3294;BME280;1659;51.470;6.770;2023-11-21T01:02:18;100922.34;;;8.54;100.00
3294;BME280;1659;51.470;6.770;2023-11-21T01:04:46;100930.22;;;8.55;100.00
3294;BME280;1659;51.470;6.770;2023-11-21T01:07:13;100932.84;;;8.57;100.00
3294;BME280;1659;51.470;6.770;2023-11-21T01:09:39;100933.72;;;8.56;100.00
3294;BME280;1659;51.470;6.770;2023-11-21T01:12:06;100932.84;;;8.57;100.00
3294;BME280;1659;51.470;6.770;2023-11-21T01:14:33;100943.38;;;8.57;100.00
3294;BME280;1659;51.470;6.770;2023-11-21T01:17:00;100936.34;;;8.59;100.00
3294;BME280;1659;51.470;6.770;2023-11-21T01:19:27;100947.72;;;8.61;100.00
3294;BME280;1659;51.470;6.770;2023-11-21T01:21:55;100944.22;;;8.62;100.00
3294;BME280;1659;51.470;6.770;2023-11-21T01:24:23;100946.84;;;8.63;100.00
3294;BME280;1659;51.470;6.770;2023-11-21T01:26:50;100946.84;;;8.65;100.00
3294;BME280;1659;51.470;6.770;2023-11-21T01:29:17;100958.25;;;8.65;100.00
3294;BME280;1659;51.470;6.770;2023-11-21T01:31:43;100956.47;;;8.66;100.00
3294;BME280;1659;51.470;6.770;2023-11-21T01:34:10;100958.22;;;8.68;100.00
3294;BME280;1659;51.470;6.770;2023-11-21T01:36:36;100955.53;;;8.72;100.00
3294;BME280;1659;51.470;6.770;2023-11-21T01:39:04;100958.19;;;8.73;100.00
3294;BME280;1659;51.470;6.770;2023-11-21T01:41:36;100958.16;;;8.75;100.00
3294;BME280;1659;51.470;6.770;2023-11-21T01:44:03;100960.78;;;8.76;100.00
3294;BME280;1659;51.470;6.770;2023-11-21T01:46:32;100957.28;;;8.77;100.00
3294;BME280;1659;51.470;6.770;2023-11-21T01:49:00;100959.00;;;8.80;100.00
3294;BME280;1659;51.470;6.770;2023-11-21T01:51:26;100962.50;;;8.80;100.00
3294;BME280;1659;51.470;6.770;2023-11-21T01:53:53;100963.41;;;8.81;100.00
3294;BME280;1659;51.470;6.770;2023-11-21T01:56:21;100969.53;;;8.81;100.00
3294;BME280;1659;51.470;6.770;2023-11-21T01:58:48;100971.25;;;8.82;100.00
3294;BME280;1659;51.470;6.770;2023-11-21T02:01:14;100973.88;;;8.84;100.00
3294;BME280;1659;51.470;6.770;2023-11-21T02:03:43;100964.25;;;8.84;100.00
3294;BME280;1659;51.470;6.770;2023-11-21T02:06:10;100968.59;;;8.85;100.00
3294;BME280;1659;51.470;6.770;2023-11-21T02:08:36;100965.09;;;8.85;100.00
3294;BME280;1659;51.470;6.770;2023-11-21T02:11:03;100971.25;;;8.82;100.00
3294;BME280;1659;51.470;6.770;2023-11-21T02:13:32;100972.16;;;8.81;100.00
3294;BME280;1659;51.470;6.770;2023-11-21T02:15:59;100979.22;;;8.81;100.00
3294;BME280;1659;51.470;6.770;2023-11-21T02:18:25;100973.03;;;8.80;100.00
3294;BME280;1659;51.470;6.770;2023-11-21T02:20:55;100981.84;;;8.79;100.00
3294;BME280;1659;51.470;6.770;2023-11-21T02:23:23;100974.84;;;8.77;100.00
3294;BME280;1659;51.470;6.770;2023-11-21T02:25:54;100985.38;;;8.75;100.00
3294;BME280;1659;51.470;6.770;2023-11-21T02:28:21;100990.66;;;8.75;100.00
3294;BME280;1659;51.470;6.770;2023-11-21T02:30:52;100983.63;;;8.77;100.00
3294;BME280;1659;51.470;6.770;2023-11-21T02:33:21;100993.25;;;8.78;100.00
3294;BME280;1659;51.470;6.770;2023-11-21T02:35:47;100985.38;;;8.78;100.00
3294;BME280;1659;51.470;6.770;2023-11-21T02:38:14;100986.22;;;8.79;100.00
3294;BME280;1659;51.470;6.770;2023-11-21T02:40:42;100984.50;;;8.79;100.00
3294;BME280;1659;51.470;6.770;2023-11-21T02:43:08;100985.34;;;8.80;100.00
3294;BME280;1659;51.470;6.770;2023-11-21T02:45:35;100987.13;;;8.79;100.00
3294;BME280;1659;51.470;6.770;2023-11-21T02:48:02;100987.13;;;8.79;100.00
3294;BME280;1659;51.470;6.770;2023-11-21T02:50:29;100984.50;;;8.79;100.00
3294;BME280;1659;51.470;6.770;2023-11-21T02:52:56;100991.50;;;8.79;100.00
3294;BME280;1659;51.470;6.770;2023-11-21T02:55:25;100995.91;;;8.78;100.00
3294;BME280;1659;51.470;6.770;2023-11-21T02:57:53;100997.66;;;8.79;100.00
3294;BME280;1659;51.470;6.770;2023-11-21T03:00:21;100995.91;;;8.78;100.00
3294;BME280;1659;51.470;6.770;2023-11-21T03:02:49;101000.31;;;8.78;100.00
3294;BME280;1659;51.470;6.770;2023-11-21T03:05:16;100998.53;;;8.77;100.00
3294;BME280;1659;51.470;6.770;2023-11-21T03:07:42;100998.53;;;8.77;100.00
3294;BME280;1659;51.470;6.770;2023-11-21T03:10:09;101002.94;;;8.76;100.00
3294;BME280;1659;51.470;6.770;2023-11-21T03:12:37;101011.72;;;8.75;100.00
3294;BME280;1659;51.470;6.770;2023-11-21T03:15:06;101008.22;;;8.75;100.00
3294;BME280;1659;51.470;6.770;2023-11-21T03:17:33;101011.78;;;8.72;100.00
3294;BME280;1659;51.470;6.770;2023-11-21T03:20:00;101004.75;;;8.71;100.00
3294;BME280;1659;51.470;6.770;2023-11-21T03:22:28;101003.88;;;8.72;100.00
3294;BME280;1659;51.470;6.770;2023-11-21T03:24:55;101007.38;;;8.73;100.00
3294;BME280;1659;51.470;6.770;2023-11-21T03:27:21;101014.41;;;8.72;100.00
3294;BME280;1659;51.470;6.770;2023-11-21T03:29:48;101015.28;;;8.73;100.00
3294;BME280;1659;51.470;6.770;2023-11-21T03:32:16;101019.69;;;8.72;100.00
3294;BME280;1659;51.470;6.770;2023-11-21T03:34:53;101021.41;;;8.73;100.00
3294;BME280;1659;51.470;6.770;2023-11-21T03:37:21;101027.56;;;8.74;100.00
3294;BME280;1659;51.470;6.770;2023-11-21T03:39:48;101033.72;;;8.73;100.00
3294;BME280;1659;51.470;6.770;2023-11-21T03:42:14;101025.81;;;8.73;100.00
3294;BME280;1659;51.470;6.770;2023-11-21T03:44:41;101039.00;;;8.71;100.00
3294;BME280;1659;51.470;6.770;2023-11-21T03:47:07;101036.34;;;8.71;100.00
3294;BME280;1659;51.470;6.770;2023-11-21T03:49:35;101043.41;;;8.71;100.00
3294;BME280;1659;51.470;6.770;2023-11-21T03:52:02;101044.25;;;8.71;100.00
3294;BME280;1659;51.470;6.770;2023-11-21T03:54:28;101053.06;;;8.68;100.00
3294;BME280;1659;51.470;6.770;2023-11-21T03:56:55;101051.31;;;8.69;100.00
3294;BME280;1659;51.470;6.770;2023-11-21T03:59:22;101049.53;;;8.69;100.00
3294;BME280;1659;51.470;6.770;2023-11-21T04:01:49;101050.44;;;8.68;100.00
3294;BME280;1659;51.470;6.770;2023-11-21T04:04:16;101053.09;;;8.67;100.00
3294;BME280;1659;51.470;6.770;2023-11-21T04:06:44;101062.72;;;8.66;100.00
3294;BME280;1659;51.470;6.770;2023-11-21T04:09:10;101066.25;;;8.67;100.00
3294;BME280;1659;51.470;6.770;2023-11-21T04:11:37;101066.25;;;8.65;100.00
3294;BME280;1659;51.470;6.770;2023-11-21T04:14:04;101063.63;;;8.65;100.00
3294;BME280;1659;51.470;6.770;2023-11-21T04:16:31;101065.41;;;8.65;100.00
3294;BME280;1659;51.470;6.770;2023-11-21T04:18:57;101061.00;;;8.64;100.00
3294;BME280;1659;51.470;6.770;2023-11-21T04:21:24;101064.50;;;8.64;100.00
3294;BME280;1659;51.470;6.770;2023-11-21T04:23:52;101065.41;;;8.63;100.00
3294;BME280;1659;51.470;6.770;2023-11-21T04:26:18;101062.78;;;8.60;100.00
3294;BME280;1659;51.470;6.770;2023-11-21T04:28:45;101061.03;;;8.58;100.00
3294;BME280;1659;51.470;6.770;2023-11-21T04:31:11;101063.69;;;8.55;100.00
3294;BME280;1659;51.470;6.770;2023-11-21T04:33:38;101061.06;;;8.52;100.00
3294;BME280;1659;51.470;6.770;2023-11-21T04:36:05;101072.47;;;8.50;100.00
3294;BME280;1659;51.470;6.770;2023-11-21T04:38:32;101069.84;;;8.50;100.00
3294;BME280;1659;51.470;6.770;2023-11-21T04:40:59;101069.84;;;8.49;100.00
3294;BME280;1659;51.470;6.770;2023-11-21T04:43:25;101072.47;;;8.49;100.00
3294;BME280;1659;51.470;6.770;2023-11-21T04:45:52;101078.66;;;8.46;100.00
3294;BME280;1659;51.470;6.770;2023-11-21T04:48:18;101076.88;;;8.47;100.00
3294;BME280;1659;51.470;6.770;2023-11-21T04:50:45;101085.69;;;8.46;100.00
3294;BME280;1659;51.470;6.770;2023-11-21T04:53:11;101088.31;;;8.46;100.00
3294;BME280;1659;51.470;6.770;2023-11-21T04:55:39;101086.56;;;8.45;100.00
3294;BME280;1659;51.470;6.770;2023-11-21T04:58:08;101088.31;;;8.46;100.00
3294;BME280;1659;51.470;6.770;2023-11-21T05:00:34;101097.09;;;8.46;100.00
3294;BME280;1659;51.470;6.770;2023-11-21T05:03:01;101091.81;;;8.46;100.00
3294;BME280;1659;51.470;6.770;2023-11-21T05:05:29;101094.47;;;8.46;100.00
3294;BME280;1659;51.470;6.770;2023-11-21T05:07:56;101097.97;;;8.47;100.00
3294;BME280;1659;51.470;6.770;2023-11-21T05:10:22;101095.31;;;8.45;100.00
3294;BME280;1659;51.470;6.770;2023-11-21T05:12:49;101097.97;;;8.45;100.00
3294;BME280;1659;51.470;6.770;2023-11-21T05:15:17;101103.22;;;8.45;100.00
3294;BME280;1659;51.470;6.770;2023-11-21T05:17:44;101103.22;;;8.45;100.00
3294;BME280;1659;51.470;6.770;2023-11-21T05:20:11;101100.59;;;8.44;100.00
3294;BME280;1659;51.470;6.770;2023-11-21T05:22:39;101106.75;;;8.43;100.00
3294;BME280;1659;51.470;6.770;2023-11-21T05:25:07;101117.28;;;8.40;100.00
3294;BME280;1659;51.470;6.770;2023-11-21T05:27:34;101123.44;;;8.36;100.00
3294;BME280;1659;51.470;6.770;2023-11-21T05:30:01;101124.31;;;8.31;100.00
3294;BME280;1659;51.470;6.770;2023-11-21T05:32:31;101128.72;;;8.28;100.00
3294;BME280;1659;51.470;6.770;2023-11-21T05:34:58;101129.63;;;8.25;100.00
3294;BME280;1659;51.470;6.770;2023-11-21T05:37:25;101136.66;;;8.22;100.00
3294;BME280;1659;51.470;6.770;2023-11-21T05:39:52;101141.91;;;8.19;100.00
3294;BME280;1659;51.470;6.770;2023-11-21T05:42:21;101148.09;;;8.16;100.00
3294;BME280;1659;51.470;6.770;2023-11-21T05:44:48;101141.91;;;8.17;100.00
3294;BME280;1659;51.470;6.770;2023-11-21T05:47:15;101157.72;;;8.20;100.00
3294;BME280;1659;51.470;6.770;2023-11-21T05:49:43;101154.19;;;8.23;100.00
3294;BME280;1659;51.470;6.770;2023-11-21T05:52:10;101150.69;;;8.25;100.00
3294;BME280;1659;51.470;6.770;2023-11-21T05:54:37;101157.69;;;8.28;100.00
3294;BME280;1659;51.470;6.770;2023-11-21T05:57:04;101161.22;;;8.27;100.00
3294;BME280;1659;51.470;6.770;2023-11-21T05:59:30;101162.97;;;8.25;100.00
3294;BME280;1659;51.470;6.770;2023-11-21T06:01:57;101169.13;;;8.25;100.00
3294;BME280;1659;51.470;6.770;2023-11-21T06:04:24;101174.38;;;8.25;100.00
3294;BME280;1659;51.470;6.770;2023-11-21T06:06:52;101177.00;;;8.30;100.00
3294;BME280;1659;51.470;6.770;2023-11-21T06:09:19;101182.25;;;8.35;100.00
3294;BME280;1659;51.470;6.770;2023-11-21T06:11:46;101184.00;;;8.36;100.00
3294;BME280;1659;51.470;6.770;2023-11-21T06:14:12;101191.91;;;8.37;100.00
3294;BME280;1659;51.470;6.770;2023-11-21T06:16:40;101181.38;;;8.39;100.00
3294;BME280;1659;51.470;6.770;2023-11-21T06:19:06;101189.28;;;8.39;100.00
3294;BME280;1659;51.470;6.770;2023-11-21T06:21:33;101195.41;;;8.39;100.00
3294;BME280;1659;51.470;6.770;2023-11-21T06:24:02;101201.53;;;8.41;100.00
3294;BME280;1659;51.470;6.770;2023-11-21T06:26:28;101200.72;;;8.42;100.00
3294;BME280;1659;51.470;6.770;2023-11-21T06:28:57;101207.72;;;8.43;100.00
3294;BME280;1659;51.470;6.770;2023-11-21T06:31:23;101214.75;;;8.43;100.00
3294;BME280;1659;51.470;6.770;2023-11-21T06:33:50;101213.88;;;8.42;100.00
3294;BME280;1659;51.470;6.770;2023-11-21T06:36:17;101213.88;;;8.42;100.00
3294;BME280;1659;51.470;6.770;2023-11-21T06:38:44;101216.50;;;8.42;100.00
3294;BME280;1659;51.470;6.770;2023-11-21T06:41:12;101225.28;;;8.43;100.00
3294;BME280;1659;51.470;6.770;2023-11-21T06:43:40;101221.75;;;8.41;100.00
3294;BME280;1659;51.470;6.770;2023-11-21T06:46:10;101227.88;;;8.40;100.00
3294;BME280;1659;51.470;6.770;2023-11-21T06:48:37;101233.16;;;8.40;100.00
3294;BME280;1659;51.470;6.770;2023-11-21T06:51:04;101234.03;;;8.39;100.00
3294;BME280;1659;51.470;6.770;2023-11-21T06:53:31;101232.28;;;8.38;100.00
3294;BME280;1659;51.470;6.770;2023-11-21T06:55:57;101246.31;;;8.37;100.00
3294;BME280;1659;51.470;6.770;2023-11-21T06:58:25;101250.72;;;8.36;100.00
3294;BME280;1659;51.470;6.770;2023-11-21T07:00:52;101252.47;;;8.37;100.00
3294;BME280;1659;51.470;6.770;2023-11-21T07:03:19;101259.47;;;8.38;100.00
3294;BME280;1659;51.470;6.770;2023-11-21T07:05:45;101260.38;;;8.39;100.00
3294;BME280;1659;51.470;6.770;2023-11-21T07:08:12;101265.63;;;8.40;100.00
3294;BME280;1659;51.470;6.770;2023-11-21T07:10:39;101269.16;;;8.41;100.00
3294;BME280;1659;51.470;6.770;2023-11-21T07:13:06;101276.19;;;8.43;100.00
3294;BME280;1659;51.470;6.770;2023-11-21T07:15:39;101273.56;;;8.43;100.00
3294;BME280;1659;51.470;6.770;2023-11-21T07:18:05;101272.69;;;8.44;100.00
3294;BME280;1659;51.470;6.770;2023-11-21T07:20:33;101273.56;;;8.43;100.00
3294;BME280;1659;51.470;6.770;2023-11-21T07:22:59;101271.78;;;8.45;100.00
3294;BME280;1659;51.470;6.770;2023-11-21T07:25:26;101280.59;;;8.46;100.00
3294;BME280;1659;51.470;6.770;2023-11-21T07:27:52;101271.78;;;8.48;100.00
3294;BME280;1659;51.470;6.770;2023-11-21T07:30:20;101270.03;;;8.49;100.00
3294;BME280;1659;51.470;6.770;2023-11-21T07:32:49;101272.66;;;8.52;100.00
3294;BME280;1659;51.470;6.770;2023-11-21T07:35:15;101276.16;;;8.54;100.00
3294;BME280;1659;51.470;6.770;2023-11-21T07:37:42;101281.44;;;8.57;100.00
3294;BME280;1659;51.470;6.770;2023-11-21T07:40:09;101286.69;;;8.59;100.00
3294;BME280;1659;51.470;6.770;2023-11-21T07:42:37;101291.06;;;8.61;100.00
3294;BME280;1659;51.470;6.770;2023-11-21T07:45:05;101291.97;;;8.63;100.00
3294;BME280;1659;51.470;6.770;2023-11-21T07:47:32;101289.34;;;8.65;100.00
3294;BME280;1659;51.470;6.770;2023-11-21T07:50:01;101295.47;;;8.67;100.00
3294;BME280;1659;51.470;6.770;2023-11-21T07:52:28;101298.06;;;8.72;100.00
3294;BME280;1659;51.470;6.770;2023-11-21T07:54:55;101298.06;;;8.75;100.00
3294;BME280;1659;51.470;6.770;2023-11-21T07:57:21;101309.47;;;8.77;100.00
3294;BME280;1659;51.470;6.770;2023-11-21T07:59:48;101317.38;;;8.80;100.00
3294;BME280;1659;51.470;6.770;2023-11-21T08:02:14;101326.16;;;8.86;100.00
3294;BME280;1659;51.470;6.770;2023-11-21T08:04:41;101327.03;;;8.93;100.00
3294;BME280;1659;51.470;6.770;2023-11-21T08:07:09;101326.13;;;8.99;100.00
3294;BME280;1659;51.470;6.770;2023-11-21T08:09:36;101339.25;;;9.06;100.00
3294;BME280;1659;51.470;6.770;2023-11-21T08:12:03;101342.75;;;9.15;100.00
3294;BME280;1659;51.470;6.770;2023-11-21T08:14:30;101354.16;;;9.21;100.00
3294;BME280;1659;51.470;6.770;2023-11-21T08:16:56;101349.75;;;9.22;100.00
3294;BME280;1659;51.470;6.770;2023-11-21T08:19:24;101349.75;;;9.20;100.00
3294;BME280;1659;51.470;6.770;2023-11-21T08:21:51;101362.06;;;9.23;100.00
3294;BME280;1659;51.470;6.770;2023-11-21T08:24:21;101355.94;;;9.19;100.00
3294;BME280;1659;51.470;6.770;2023-11-21T08:26:48;101362.06;;;9.20;100.00
3294;BME280;1659;51.470;6.770;2023-11-21T08:29:15;101362.94;;;9.20;100.00
3294;BME280;1659;51.470;6.770;2023-11-21T08:31:42;101370.84;;;9.19;100.00
3294;BME280;1659;51.470;6.770;2023-11-21T08:34:10;101375.25;;;9.17;100.00
3294;BME280;1659;51.470;6.770;2023-11-21T08:36:41;101372.63;;;9.15;100.00
3294;BME280;1659;51.470;6.770;2023-11-21T08:39:08;101376.13;;;9.17;100.00
3294;BME280;1659;51.470;6.770;2023-11-21T08:41:36;101373.50;;;9.17;100.00
3294;BME280;1659;51.470;6.770;2023-11-21T08:44:02;101378.81;;;9.14;100.00
3294;BME280;1659;51.470;6.770;2023-11-21T08:46:32;101384.06;;;9.16;100.00
3294;BME280;1659;51.470;6.770;2023-11-21T08:49:00;101384.03;;;9.19;100.00
3294;BME280;1659;51.470;6.770;2023-11-21T08:51:27;101378.78;;;9.20;100.00
3294;BME280;1659;51.470;6.770;2023-11-21T08:53:53;101398.09;;;9.24;100.00
3294;BME280;1659;51.470;6.770;2023-11-21T08:56:24;101395.47;;;9.27;100.00
3294;BME280;1659;51.470;6.770;2023-11-21T08:58:52;101400.72;;;9.29;100.00
3294;BME280;1659;51.470;6.770;2023-11-21T09:01:19;101410.41;;;9.30;100.00
3294;BME280;1659;51.470;6.770;2023-11-21T09:03:46;101408.59;;;9.35;100.00
3294;BME280;1659;51.470;6.770;2023-11-21T09:06:13;101401.59;;;9.38;100.00
3294;BME280;1659;51.470;6.770;2023-11-21T09:08:39;101406.81;;;9.41;100.00
3294;BME280;1659;51.470;6.770;2023-11-21T09:11:07;101414.75;;;9.46;100.00
3294;BME280;1659;51.470;6.770;2023-11-21T09:13:33;101427.03;;;9.49;100.00
3294;BME280;1659;51.470;6.770;2023-11-21T09:16:03;101425.25;;;9.52;100.00
3294;BME280;1659;51.470;6.770;2023-11-21T09:18:30;101425.25;;;9.55;100.00
3294;BME280;1659;51.470;6.770;2023-11-21T09:20:57;101436.66;;;9.59;100.00
3294;BME280;1659;51.470;6.770;2023-11-21T09:23:24;101428.75;;;9.63;100.00
3294;BME280;1659;51.470;6.770;2023-11-21T09:25:50;101432.25;;;9.69;100.00
3294;BME280;1659;51.470;6.770;2023-11-21T09:28:17;101441.03;;;9.69;100.00
3294;BME280;1659;51.470;6.770;2023-11-21T09:30:43;101442.78;;;9.72;100.00
3294;BME280;1659;51.470;6.770;2023-11-21T09:33:11;101442.78;;;9.70;100.00
3294;BME280;1659;51.470;6.770;2023-11-21T09:35:38;101453.34;;;9.70;100.00
3294;BME280;1659;51.470;6.770;2023-11-21T09:38:05;101448.06;;;9.70;100.00
3294;BME280;1659;51.470;6.770;2023-11-21T09:40:35;101448.94;;;9.71;100.00
3294;BME280;1659;51.470;6.770;2023-11-21T09:43:06;101443.66;;;9.69;100.00
3294;BME280;1659;51.470;6.770;2023-11-21T09:45:35;101448.94;;;9.69;100.00
3294;BME280;1659;51.470;6.770;2023-11-21T09:48:02;101453.34;;;9.69;100.00
3294;BME280;1659;51.470;6.770;2023-11-21T09:50:32;101454.22;;;9.68;100.00
3294;BME280;1659;51.470;6.770;2023-11-21T09:53:07;101450.72;;;9.66;100.00
3294;BME280;1659;51.470;6.770;2023-11-21T09:55:37;101463.91;;;9.66;100.00
3294;BME280;1659;51.470;6.770;2023-11-21T09:58:06;101465.69;;;9.67;100.00
3294;BME280;1659;51.470;6.770;2023-11-21T10:00:33;101463.91;;;9.70;100.00
3294;BME280;1659;51.470;6.770;2023-11-21T10:03:00;101463.00;;;9.76;100.00
3294;BME280;1659;51.470;6.770;2023-11-21T10:05:28;101466.50;;;9.84;100.00
3294;BME280;1659;51.470;6.770;2023-11-21T10:07:56;101462.94;;;9.91;100.00
3294;BME280;1659;51.470;6.770;2023-11-21T10:10:24;101464.66;;;9.95;100.00
3294;BME280;1659;51.470;6.770;2023-11-21T10:12:56;101466.44;;;9.95;100.00
3294;BME280;1659;51.470;6.770;2023-11-21T10:15:24;101469.06;;;9.98;100.00
3294;BME280;1659;51.470;6.770;2023-11-21T10:17:52;101473.44;;;10.02;100.00
3294;BME280;1659;51.470;6.770;2023-11-21T10:20:19;101474.28;;;10.06;100.00
3294;BME280;1659;51.470;6.770;2023-11-21T10:22:46;101482.22;;;10.09;100.00
3294;BME280;1659;51.470;6.770;2023-11-21T10:25:14;101484.84;;;10.09;100.00
3294;BME280;1659;51.470;6.770;2023-11-21T10:27:42;101482.19;;;10.10;100.00
3294;BME280;1659;51.470;6.770;2023-11-21T10:30:09;101481.28;;;10.16;100.00
3294;BME280;1659;51.470;6.770;2023-11-21T10:32:37;101476.84;;;10.21;100.00
3294;BME280;1659;51.470;6.770;2023-11-21T10:35:06;101481.22;;;10.25;100.00
3294;BME280;1659;51.470;6.770;2023-11-21T10:37:35;101482.09;;;10.33;100.00
3294;BME280;1659;51.470;6.770;2023-11-21T10:40:02;101477.66;;;10.43;100.00
3294;BME280;1659;51.470;6.770;2023-11-21T10:42:31;101485.44;;;10.57;100.00
3294;BME280;1659;51.470;6.770;2023-11-21T10:44:58;101483.59;;;10.70;100.00
3294;BME280;1659;51.470;6.770;2023-11-21T10:47:25;101488.81;;;10.81;100.00
3294;BME280;1659;51.470;6.770;2023-11-21T10:49:52;101488.72;;;10.91;100.00
3294;BME280;1659;51.470;6.770;2023-11-21T10:52:19;101485.13;;;10.99;100.00
3294;BME280;1659;51.470;6.770;2023-11-21T10:54:46;101492.13;;;11.04;100.00
3294;BME280;1659;51.470;6.770;2023-11-21T10:57:18;101501.78;;;11.11;100.00
3294;BME280;1659;51.470;6.770;2023-11-21T10:59:48;101503.50;;;11.11;100.00
3294;BME280;1659;51.470;6.770;2023-11-21T11:02:22;101506.22;;;11.08;100.00
3294;BME280;1659;51.470;6.770;2023-11-21T11:04:51;101507.09;;;11.05;100.00
3294;BME280;1659;51.470;6.770;2023-11-21T11:07:20;101513.31;;;11.00;100.00
3294;BME280;1659;51.470;6.770;2023-11-21T11:09:48;101515.13;;;10.98;100.00
3294;BME280;1659;51.470;6.770;2023-11-21T11:12:14;101516.00;;;10.96;100.00
3294;BME280;1659;51.470;6.770;2023-11-21T11:14:43;101508.06;;;10.95;100.00
3294;BME280;1659;51.470;6.770;2023-11-21T11:17:13;101510.69;;;10.98;100.00
3294;BME280;1659;51.470;6.770;2023-11-21T11:19:40;101510.72;;;10.96;100.00
3294;BME280;1659;51.470;6.770;2023-11-21T11:22:16;101517.78;;;10.96;100.00
3294;BME280;1659;51.470;6.770;2023-11-21T11:25:03;101515.16;;;10.93;100.00
3294;BME280;1659;51.470;6.770;2023-11-21T11:27:46;101520.47;;;10.88;100.00
3294;BME280;1659;51.470;6.770;2023-11-21T11:30:25;101515.22;;;10.84;100.00
3294;BME280;1659;51.470;6.770;2023-11-21T11:35:50;101526.75;;;10.76;100.00
3294;BME280;1659;51.470;6.770;2023-11-21T11:38:21;101532.91;;;10.75;100.00
3294;BME280;1659;51.470;6.770;2023-11-21T11:40:52;101532.91;;;10.75;100.00
3294;BME280;1659;51.470;6.770;2023-11-21T11:43:25;101532.03;;;10.76;100.00
3294;BME280;1659;51.470;6.770;2023-11-21T11:45:51;101534.63;;;10.80;100.00
3294;BME280;1659;51.470;6.770;2023-11-21T11:48:21;101532.84;;;10.83;100.00
3294;BME280;1659;51.470;6.770;2023-11-21T11:51:02;101530.16;;;10.88;100.00
3294;BME280;1659;51.470;6.770;2023-11-21T11:53:34;101538.94;;;10.94;100.00
3294;BME280;1659;51.470;6.770;2023-11-21T11:56:20;101531.84;;;11.01;100.00
3294;BME280;1659;51.470;6.770;2023-11-21T11:58:47;101533.56;;;11.02;100.00
3294;BME280;1659;51.470;6.770;2023-11-21T12:01:16;101537.97;;;11.03;100.00
3294;BME280;1659;51.470;6.770;2023-11-21T12:04:23;101540.59;;;11.08;100.00
3294;BME280;1659;51.470;6.770;2023-11-21T12:06:56;101539.66;;;11.17;100.00
3294;BME280;1659;51.470;6.770;2023-11-21T12:09:26;101529.00;;;11.23;100.00
3294;BME280;1659;51.470;6.770;2023-11-21T12:11:53;101528.91;;;11.30;100.00
3294;BME280;1659;51.470;6.770;2023-11-21T12:14:22;101523.47;;;11.44;100.00
3294;BME280;1659;51.470;6.770;2023-11-21T12:16:49;101529.22;;;11.86;100.00
3294;BME280;1659;51.470;6.770;2023-11-21T12:19:18;101536.75;;;12.22;100.00
3294;BME280;1659;51.470;6.770;2023-11-21T12:21:46;101539.13;;;12.40;100.00
3294;BME280;1659;51.470;6.770;2023-11-21T12:24:14;101539.94;;;12.45;100.00
3294;BME280;1659;51.470;6.770;2023-11-21T12:26:42;101540.84;;;12.46;100.00
3294;BME280;1659;51.470;6.770;2023-11-21T12:29:09;101554.97;;;12.45;100.00
3294;BME280;1659;51.470;6.770;2023-11-21T12:31:36;101562.13;;;12.40;100.00
3294;BME280;1659;51.470;6.770;2023-11-21T12:34:03;101563.16;;;12.28;100.00
3294;BME280;1659;51.470;6.770;2023-11-21T12:36:31;101561.59;;;12.12;100.00
3294;BME280;1659;51.470;6.770;2023-11-21T12:38:59;101565.38;;;11.94;100.00
3294;BME280;1659;51.470;6.770;2023-11-21T12:41:26;101571.69;;;11.77;100.00
3294;BME280;1659;51.470;6.770;2023-11-21T12:43:54;101562.06;;;11.67;100.00
3294;BME280;1659;51.470;6.770;2023-11-21T12:46:21;101570.09;;;11.61;100.00
3294;BME280;1659;51.470;6.770;2023-11-21T12:48:48;101576.34;;;11.53;100.00
3294;BME280;1659;51.470;6.770;2023-11-21T12:51:15;101579.97;;;11.45;100.00
3294;BME280;1659;51.470;6.770;2023-11-21T12:53:45;101586.22;;;11.34;100.00
3294;BME280;1659;51.470;6.770;2023-11-21T12:56:12;101591.63;;;11.22;100.00
3294;BME280;1659;51.470;6.770;2023-11-21T12:58:44;101594.31;;;11.13;100.00
3294;BME280;1659;51.470;6.770;2023-11-21T13:01:13;101606.72;;;11.08;100.00
3294;BME280;1659;51.470;6.770;2023-11-21T13:03:46;101598.84;;;11.00;100.00
3294;BME280;1659;51.470;6.770;2023-11-21T13:06:17;101610.34;;;10.93;100.00
3294;BME280;1659;51.470;6.770;2023-11-21T13:08:45;101611.28;;;10.84;100.00
3294;BME280;1659;51.470;6.770;2023-11-21T13:11:12;101611.34;;;10.76;100.00
3294;BME280;1659;51.470;6.770;2023-11-21T13:13:41;101615.78;;;10.68;100.00